createdAt,value
2022-12-06T00:00:01.896Z,4.08
2022-12-06T00:01:01.664Z,4.06
2022-12-06T00:02:01.668Z,4.08
2022-12-06T00:03:01.568Z,4.06
2022-12-06T00:04:01.496Z,4.01
2022-12-06T00:05:01.422Z,4.01
2022-12-06T00:06:01.346Z,3.95
2022-12-06T00:07:01.299Z,3.98
2022-12-06T00:08:01.273Z,3.91
2022-12-06T00:09:01.222Z,4.02
2022-12-06T00:10:01.326Z,3.94
2022-12-06T00:11:01.048Z,3.92
2022-12-06T00:12:00.987Z,3.92
2022-12-06T00:13:00.926Z,3.91
2022-12-06T00:14:00.891Z,3.98
2022-12-06T00:15:00.810Z,3.88
2022-12-06T00:16:00.842Z,3.99
2022-12-06T00:17:00.770Z,3.96
2022-12-06T00:18:00.620Z,3.98
2022-12-06T00:19:00.599Z,3.92
2022-12-06T00:20:00.834Z,3.99
2022-12-06T00:21:00.458Z,3.88
2022-12-06T00:22:00.408Z,3.91
2022-12-06T00:23:00.363Z,3.92
2022-12-06T00:24:00.282Z,4.01
2022-12-06T00:25:00.236Z,3.87
2022-12-06T00:26:00.153Z,3.99
2022-12-06T00:27:00.111Z,3.94
2022-12-06T00:28:00.043Z,3.83
2022-12-06T00:28:59.985Z,3.84
2022-12-06T00:30:00.271Z,3.88
2022-12-06T00:30:59.865Z,3.86
2022-12-06T00:31:59.871Z,3.83
2022-12-06T00:32:59.743Z,3.84
2022-12-06T00:33:59.696Z,3.86
2022-12-06T00:34:59.602Z,3.83
2022-12-06T00:35:59.586Z,3.83
2022-12-06T00:36:59.515Z,3.86
2022-12-06T00:37:59.455Z,3.83
2022-12-06T00:38:59.479Z,3.86
2022-12-06T00:39:59.586Z,3.87
2022-12-06T00:40:59.257Z,3.87
2022-12-06T00:41:59.204Z,3.83
2022-12-06T00:42:59.159Z,3.84
2022-12-06T00:43:59.093Z,3.81
2022-12-06T00:44:59.010Z,3.81
2022-12-06T00:45:59.044Z,3.86
2022-12-06T00:46:58.903Z,3.87
2022-12-06T00:47:58.873Z,3.83
2022-12-06T00:48:58.805Z,3.84
2022-12-06T00:49:59.066Z,3.86
2022-12-06T00:50:58.671Z,3.83
2022-12-06T00:51:58.686Z,3.80
2022-12-06T00:52:58.567Z,3.83
2022-12-06T00:53:58.495Z,3.83
2022-12-06T00:54:58.459Z,3.87
2022-12-06T00:55:58.364Z,3.91
2022-12-06T00:56:58.333Z,3.81
2022-12-06T00:57:58.300Z,3.81
2022-12-06T00:58:58.219Z,3.87
2022-12-06T00:59:58.433Z,3.86
2022-12-06T01:00:58.156Z,3.88
2022-12-06T01:01:58.022Z,3.96
2022-12-06T01:02:57.968Z,3.88
2022-12-06T01:03:57.931Z,3.92
2022-12-06T01:04:57.821Z,3.91
2022-12-06T01:05:57.786Z,3.88
2022-12-06T01:06:57.725Z,3.87
2022-12-06T01:07:57.710Z,3.94
2022-12-06T01:08:57.630Z,3.86
2022-12-06T01:09:57.880Z,3.87
2022-12-06T01:10:57.472Z,3.92
2022-12-06T01:11:57.441Z,3.92
2022-12-06T01:12:57.387Z,3.88
2022-12-06T01:13:57.305Z,3.83
2022-12-06T01:14:57.235Z,3.88
2022-12-06T01:15:57.179Z,3.80
2022-12-06T01:16:57.191Z,3.86
2022-12-06T01:17:57.078Z,3.91
2022-12-06T01:18:57.028Z,3.87
2022-12-06T01:19:57.250Z,3.87
2022-12-06T01:20:56.872Z,3.86
2022-12-06T01:21:56.835Z,3.86
2022-12-06T01:22:56.788Z,3.83
2022-12-06T01:23:56.701Z,3.84
2022-12-06T01:24:56.639Z,3.92
2022-12-06T01:25:56.571Z,3.84
2022-12-06T01:26:56.573Z,3.81
2022-12-06T01:27:56.479Z,3.83
2022-12-06T01:28:56.427Z,3.78
2022-12-06T01:29:56.545Z,3.76
2022-12-06T01:30:56.323Z,3.76
2022-12-06T01:31:56.241Z,3.80
2022-12-06T01:32:56.175Z,3.76
2022-12-06T01:33:56.183Z,3.81
2022-12-06T01:34:56.047Z,3.70
2022-12-06T01:35:55.984Z,3.78
2022-12-06T01:36:55.957Z,3.78
2022-12-06T01:37:55.877Z,3.68
2022-12-06T01:38:55.834Z,3.80
2022-12-06T01:39:55.758Z,3.80
2022-12-06T01:40:55.688Z,3.70
2022-12-06T01:41:55.667Z,3.74
2022-12-06T01:42:55.602Z,3.69
2022-12-06T01:43:55.516Z,3.80
2022-12-06T01:44:55.475Z,3.78
2022-12-06T01:45:55.428Z,3.70
2022-12-06T01:46:55.344Z,3.78
2022-12-06T01:47:55.263Z,3.69
2022-12-06T01:48:55.221Z,3.69
2022-12-06T01:49:55.187Z,3.76
2022-12-06T01:50:55.086Z,3.81
2022-12-06T01:51:55.041Z,3.83
2022-12-06T01:52:54.970Z,3.70
2022-12-06T01:53:54.933Z,3.76
2022-12-06T01:54:54.871Z,3.70
2022-12-06T01:55:54.783Z,3.78
2022-12-06T01:56:54.747Z,3.74
2022-12-06T01:57:54.668Z,3.80
2022-12-06T01:58:54.629Z,3.77
2022-12-06T01:59:54.578Z,3.78
2022-12-06T02:00:54.574Z,3.77
2022-12-06T02:01:54.545Z,3.70
2022-12-06T02:02:54.408Z,3.76
2022-12-06T02:03:54.341Z,3.73
2022-12-06T02:04:54.465Z,3.78
2022-12-06T02:05:54.210Z,3.78
2022-12-06T02:06:54.139Z,3.78
2022-12-06T02:07:54.145Z,3.83
2022-12-06T02:08:54.027Z,3.87
2022-12-06T02:09:53.958Z,3.83
2022-12-06T02:10:53.919Z,3.84
2022-12-06T02:11:53.856Z,3.83
2022-12-06T02:12:53.783Z,3.83
2022-12-06T02:13:53.719Z,3.80
2022-12-06T02:14:53.652Z,3.84
2022-12-06T02:15:53.629Z,3.81
2022-12-06T02:16:53.609Z,3.83
2022-12-06T02:17:53.473Z,3.76
2022-12-06T02:18:53.443Z,3.80
2022-12-06T02:19:53.376Z,3.80
2022-12-06T02:20:53.334Z,3.80
2022-12-06T02:21:53.245Z,3.78
2022-12-06T02:22:53.197Z,3.83
2022-12-06T02:23:53.134Z,3.81
2022-12-06T02:24:53.058Z,3.84
2022-12-06T02:25:53.053Z,3.83
2022-12-06T02:26:52.967Z,3.78
2022-12-06T02:27:52.883Z,3.81
2022-12-06T02:28:52.837Z,3.73
2022-12-06T02:29:52.769Z,3.74
2022-12-06T02:30:52.784Z,3.76
2022-12-06T02:31:52.668Z,3.77
2022-12-06T02:32:55.103Z,3.77
2022-12-06T02:33:52.551Z,3.78
2022-12-06T02:34:52.483Z,3.74
2022-12-06T02:35:52.426Z,3.81
2022-12-06T02:36:52.340Z,3.77
2022-12-06T02:37:52.335Z,3.68
2022-12-06T02:38:52.243Z,3.74
2022-12-06T02:39:52.163Z,3.76
2022-12-06T02:40:52.131Z,3.78
2022-12-06T02:41:52.056Z,3.83
2022-12-06T02:42:52.012Z,3.73
2022-12-06T02:43:51.949Z,3.83
2022-12-06T02:44:51.883Z,3.69
2022-12-06T02:45:51.832Z,3.74
2022-12-06T02:46:51.754Z,3.70
2022-12-06T02:47:51.700Z,3.73
2022-12-06T02:48:51.653Z,3.73
2022-12-06T02:49:51.561Z,3.80
2022-12-06T02:50:51.512Z,3.74
2022-12-06T02:51:51.452Z,3.77
2022-12-06T02:52:51.404Z,3.78
2022-12-06T02:53:51.377Z,3.78
2022-12-06T02:54:51.278Z,3.83
2022-12-06T02:55:51.232Z,3.77
2022-12-06T02:56:51.163Z,3.76
2022-12-06T02:57:51.095Z,3.73
2022-12-06T02:58:51.087Z,3.76
2022-12-06T02:59:51.000Z,3.80
2022-12-06T03:00:50.920Z,3.78
2022-12-06T03:01:50.911Z,3.76
2022-12-06T03:02:50.870Z,3.73
2022-12-06T03:03:50.760Z,3.78
2022-12-06T03:04:50.698Z,3.78
2022-12-06T03:05:50.659Z,3.73
2022-12-06T03:06:50.563Z,3.76
2022-12-06T03:07:50.553Z,3.68
2022-12-06T03:08:50.459Z,3.69
2022-12-06T03:09:50.392Z,3.65
2022-12-06T03:10:50.360Z,3.60
2022-12-06T03:11:50.266Z,3.62
2022-12-06T03:12:50.223Z,3.60
2022-12-06T03:13:50.153Z,3.65
2022-12-06T03:14:50.097Z,3.55
2022-12-06T03:15:50.119Z,3.59
2022-12-06T03:16:49.990Z,3.59
2022-12-06T03:17:49.939Z,3.60
2022-12-06T03:18:49.853Z,3.56
2022-12-06T03:19:49.811Z,3.58
2022-12-06T03:20:49.759Z,3.59
2022-12-06T03:21:49.695Z,3.63
2022-12-06T03:22:49.621Z,3.50
2022-12-06T03:23:49.580Z,3.60
2022-12-06T03:24:49.547Z,3.59
2022-12-06T03:25:49.445Z,3.62
2022-12-06T03:26:49.382Z,3.63
2022-12-06T03:27:49.324Z,3.59
2022-12-06T03:28:49.277Z,3.51
2022-12-06T03:29:49.225Z,3.60
2022-12-06T03:30:49.224Z,3.63
2022-12-06T03:31:49.078Z,3.55
2022-12-06T03:32:49.038Z,3.56
2022-12-06T03:33:48.978Z,3.60
2022-12-06T03:34:48.946Z,3.60
2022-12-06T03:35:48.841Z,3.58
2022-12-06T03:36:48.786Z,3.62
2022-12-06T03:37:48.741Z,3.53
2022-12-06T03:38:48.670Z,3.53
2022-12-06T03:39:48.615Z,3.56
2022-12-06T03:40:48.543Z,3.60
2022-12-06T03:41:48.488Z,3.53
2022-12-06T03:42:48.415Z,3.41
2022-12-06T03:43:48.388Z,3.50
2022-12-06T03:44:48.300Z,3.41
2022-12-06T03:45:48.359Z,3.55
2022-12-06T03:46:48.220Z,3.55
2022-12-06T03:47:48.116Z,3.59
2022-12-06T03:48:48.080Z,3.50
2022-12-06T03:49:48.040Z,3.58
2022-12-06T03:50:47.975Z,3.48
2022-12-06T03:51:47.899Z,3.58
2022-12-06T03:52:47.822Z,3.48
2022-12-06T03:53:47.796Z,3.50
2022-12-06T03:54:47.721Z,3.45
2022-12-06T03:55:47.685Z,3.44
2022-12-06T03:56:47.572Z,3.44
2022-12-06T03:57:47.537Z,3.44
2022-12-06T03:58:47.499Z,3.42
2022-12-06T03:59:47.426Z,3.40
2022-12-06T04:00:47.393Z,3.41
2022-12-06T04:01:47.334Z,3.40
2022-12-06T04:02:47.263Z,3.29
2022-12-06T04:03:47.248Z,3.32
2022-12-06T04:04:47.128Z,3.32
2022-12-06T04:05:47.095Z,3.25
2022-12-06T04:06:46.986Z,3.26
2022-12-06T04:07:46.986Z,3.31
2022-12-06T04:08:46.893Z,3.32
2022-12-06T04:09:46.826Z,3.29
2022-12-06T04:10:46.754Z,3.31
2022-12-06T04:11:46.708Z,3.21
2022-12-06T04:12:46.666Z,3.28
2022-12-06T04:13:46.612Z,3.25
2022-12-06T04:14:46.523Z,3.22
2022-12-06T04:15:46.564Z,3.22
2022-12-06T04:16:46.408Z,3.23
2022-12-06T04:17:46.352Z,3.22
2022-12-06T04:18:46.301Z,3.21
2022-12-06T04:19:50.749Z,3.22
2022-12-06T04:20:46.198Z,3.25
2022-12-06T04:21:46.104Z,3.18
2022-12-06T04:22:46.072Z,3.08
2022-12-06T04:23:45.999Z,3.11
2022-12-06T04:24:45.954Z,3.04
2022-12-06T04:25:45.862Z,3.05
2022-12-06T04:26:45.848Z,3.08
2022-12-06T04:27:45.740Z,3.08
2022-12-06T04:28:45.708Z,3.05
2022-12-06T04:29:45.625Z,3.04
2022-12-06T04:30:45.592Z,3.01
2022-12-06T04:31:45.579Z,3.03
2022-12-06T04:32:45.430Z,3.04
2022-12-06T04:33:45.416Z,3.10
2022-12-06T04:34:45.323Z,3.01
2022-12-06T04:35:45.296Z,3.03
2022-12-06T04:36:45.219Z,3.03
2022-12-06T04:37:45.152Z,3.07
2022-12-06T04:38:45.140Z,3.07
2022-12-06T04:39:45.037Z,3.08
2022-12-06T04:40:44.974Z,3.00
2022-12-06T04:41:44.918Z,3.03
2022-12-06T04:42:44.877Z,3.01
2022-12-06T04:43:44.804Z,3.07
2022-12-06T04:44:44.741Z,3.01
2022-12-06T04:45:44.676Z,3.05
2022-12-06T04:46:44.671Z,3.11
2022-12-06T04:47:44.591Z,3.07
2022-12-06T04:48:44.518Z,3.10
2022-12-06T04:49:44.455Z,3.08
2022-12-06T04:50:44.379Z,3.04
2022-12-06T04:51:44.351Z,3.05
2022-12-06T04:52:44.279Z,3.05
2022-12-06T04:53:44.208Z,3.10
2022-12-06T04:54:44.178Z,3.01
2022-12-06T04:55:44.071Z,3.00
2022-12-06T04:56:44.006Z,3.07
2022-12-06T04:57:44.020Z,3.05
2022-12-06T04:58:43.960Z,3.01
2022-12-06T04:59:43.887Z,2.97
2022-12-06T05:00:43.890Z,2.93
2022-12-06T05:01:43.758Z,2.90
2022-12-06T05:02:43.696Z,2.92
2022-12-06T05:03:44.489Z,2.90
2022-12-06T05:04:43.545Z,2.89
2022-12-06T05:05:43.486Z,2.93
2022-12-06T05:06:43.424Z,2.89
2022-12-06T05:07:43.430Z,2.82
2022-12-06T05:08:43.326Z,2.86
2022-12-06T05:09:43.290Z,2.82
2022-12-06T05:10:43.183Z,2.90
2022-12-06T05:11:43.124Z,2.86
2022-12-06T05:12:43.088Z,2.87
2022-12-06T05:13:43.015Z,2.87
2022-12-06T05:14:43.071Z,2.83
2022-12-06T05:15:42.895Z,2.85
2022-12-06T05:16:42.872Z,2.86
2022-12-06T05:17:42.774Z,2.89
2022-12-06T05:18:42.737Z,2.87
2022-12-06T05:19:42.675Z,2.86
2022-12-06T05:20:42.592Z,2.95
2022-12-06T05:21:42.551Z,2.86
2022-12-06T05:22:42.466Z,2.90
2022-12-06T05:23:42.435Z,2.95
2022-12-06T05:24:42.375Z,2.93
2022-12-06T05:25:42.310Z,2.87
2022-12-06T05:26:42.221Z,2.97
2022-12-06T05:27:42.191Z,2.95
2022-12-06T05:28:42.114Z,2.93
2022-12-06T05:29:42.073Z,2.89
2022-12-06T05:30:41.984Z,3.01
2022-12-06T05:31:41.985Z,3.05
2022-12-06T05:32:41.908Z,2.98
2022-12-06T05:33:41.817Z,2.87
2022-12-06T05:34:41.764Z,2.95
2022-12-06T05:35:41.680Z,2.92
2022-12-06T05:36:41.641Z,2.95
2022-12-06T05:37:41.595Z,2.95
2022-12-06T05:38:41.525Z,2.92
2022-12-06T05:39:41.468Z,2.82
2022-12-06T05:40:41.383Z,2.92
2022-12-06T05:41:41.315Z,2.92
2022-12-06T05:42:41.282Z,2.87
2022-12-06T05:43:41.258Z,2.93
2022-12-06T05:44:41.157Z,2.97
2022-12-06T05:45:41.171Z,2.90
2022-12-06T05:46:41.112Z,2.87
2022-12-06T05:47:41.003Z,2.93
2022-12-06T05:48:40.912Z,3.00
2022-12-06T05:49:40.865Z,2.95
2022-12-06T05:50:40.818Z,2.98
2022-12-06T05:51:40.735Z,2.93
2022-12-06T05:52:40.722Z,2.95
2022-12-06T05:53:40.644Z,2.95
2022-12-06T05:54:40.584Z,2.95
2022-12-06T05:55:40.531Z,2.98
2022-12-06T05:56:40.446Z,2.98
2022-12-06T05:57:46.923Z,2.95
2022-12-06T05:58:40.340Z,3.01
2022-12-06T05:59:40.355Z,3.03
2022-12-06T06:00:40.238Z,2.97
2022-12-06T06:01:40.232Z,2.93
2022-12-06T06:02:40.201Z,2.98
2022-12-06T06:03:45.686Z,3.01
2022-12-06T06:04:39.959Z,2.86
2022-12-06T06:05:39.909Z,2.90
2022-12-06T06:06:39.878Z,2.87
2022-12-06T06:07:39.844Z,2.86
2022-12-06T06:08:39.749Z,2.89
2022-12-06T06:09:39.664Z,2.95
2022-12-06T06:10:39.626Z,3.00
2022-12-06T06:11:39.573Z,2.86
2022-12-06T06:12:39.475Z,2.98
2022-12-06T06:13:39.452Z,2.92
2022-12-06T06:14:39.366Z,2.92
2022-12-06T06:15:39.314Z,2.86
2022-12-06T06:16:39.301Z,2.92
2022-12-06T06:17:39.178Z,2.92
2022-12-06T06:18:39.154Z,2.95
2022-12-06T06:19:39.067Z,2.90
2022-12-06T06:20:38.998Z,2.82
2022-12-06T06:21:38.946Z,2.93
2022-12-06T06:22:38.892Z,2.89
2022-12-06T06:23:38.849Z,2.87
2022-12-06T06:24:38.764Z,2.89
2022-12-06T06:25:38.713Z,2.89
2022-12-06T06:26:38.664Z,2.86
2022-12-06T06:27:38.595Z,2.83
2022-12-06T06:28:38.542Z,2.90
2022-12-06T06:29:43.617Z,2.86
2022-12-06T06:30:38.417Z,2.93
2022-12-06T06:31:38.411Z,2.85
2022-12-06T06:32:38.328Z,2.87
2022-12-06T06:33:38.250Z,2.86
2022-12-06T06:34:38.167Z,2.90
2022-12-06T06:35:38.104Z,2.90
2022-12-06T06:36:42.395Z,2.89
2022-12-06T06:37:38.005Z,2.86
2022-12-06T06:38:37.913Z,2.87
2022-12-06T06:39:37.863Z,2.89
2022-12-06T06:40:37.811Z,2.87
2022-12-06T06:41:37.755Z,2.87
2022-12-06T06:42:37.714Z,2.90
2022-12-06T06:43:37.628Z,2.85
2022-12-06T06:44:37.561Z,2.85
2022-12-06T06:45:37.629Z,2.85
2022-12-06T06:46:37.471Z,2.89
2022-12-06T06:47:37.397Z,2.87
2022-12-06T06:48:37.347Z,2.87
2022-12-06T06:49:37.279Z,2.85
2022-12-06T06:50:37.211Z,2.90
2022-12-06T06:51:37.193Z,2.87
2022-12-06T06:52:37.100Z,2.85
2022-12-06T06:53:37.054Z,2.90
2022-12-06T06:54:36.971Z,2.86
2022-12-06T06:55:36.940Z,2.89
2022-12-06T06:56:36.873Z,2.87
2022-12-06T06:57:36.807Z,2.86
2022-12-06T06:58:36.779Z,2.86
2022-12-06T06:59:36.759Z,2.87
2022-12-06T07:00:36.611Z,2.89
2022-12-06T07:01:36.609Z,2.85
2022-12-06T07:02:36.545Z,2.83
2022-12-06T07:03:36.455Z,2.89
2022-12-06T07:04:36.378Z,2.90
2022-12-06T07:05:36.312Z,2.89
2022-12-06T07:06:36.263Z,2.90
2022-12-06T07:07:36.270Z,2.87
2022-12-06T07:08:36.156Z,2.90
2022-12-06T07:09:36.077Z,2.90
2022-12-06T07:10:36.014Z,2.85
2022-12-06T07:11:35.958Z,2.86
2022-12-06T07:12:35.933Z,2.87
2022-12-06T07:13:35.871Z,2.82
2022-12-06T07:14:35.799Z,2.83
2022-12-06T07:15:35.710Z,2.85
2022-12-06T07:16:35.691Z,2.77
2022-12-06T07:17:36.394Z,2.79
2022-12-06T07:18:35.572Z,2.80
2022-12-06T07:19:35.489Z,2.83
2022-12-06T07:20:35.434Z,2.90
2022-12-06T07:21:35.363Z,2.77
2022-12-06T07:22:35.327Z,2.79
2022-12-06T07:23:35.283Z,2.82
2022-12-06T07:24:41.229Z,2.80
2022-12-06T07:25:35.143Z,2.75
2022-12-06T07:26:35.080Z,2.77
2022-12-06T07:27:35.040Z,2.77
2022-12-06T07:28:34.994Z,2.77
2022-12-06T07:29:34.888Z,2.80
2022-12-06T07:30:35.097Z,2.74
2022-12-06T07:31:34.831Z,2.79
2022-12-06T07:32:34.691Z,2.72
2022-12-06T07:33:34.715Z,2.74
2022-12-06T07:34:34.574Z,2.75
2022-12-06T07:36:10.341Z,2.71
2022-12-06T07:36:34.501Z,2.71
2022-12-06T07:37:34.394Z,2.71
2022-12-06T07:38:34.366Z,2.62
2022-12-06T07:39:34.336Z,2.53
2022-12-06T07:41:02.786Z,2.72
2022-12-06T07:41:34.185Z,2.68
2022-12-06T07:42:34.196Z,2.68
2022-12-06T07:43:34.068Z,2.67
2022-12-06T07:44:33.973Z,2.62
2022-12-06T07:45:33.985Z,2.62
2022-12-06T07:46:33.966Z,2.62
2022-12-06T07:47:33.819Z,2.51
2022-12-06T07:48:33.754Z,2.64
2022-12-06T07:49:33.722Z,2.53
2022-12-06T07:50:33.655Z,2.60
2022-12-06T07:51:33.594Z,2.56
2022-12-06T07:52:33.507Z,2.54
2022-12-06T07:53:33.451Z,2.61
2022-12-06T07:54:33.423Z,2.71
2022-12-06T07:55:33.335Z,2.54
2022-12-06T07:56:33.296Z,2.68
2022-12-06T07:57:35.315Z,2.69
2022-12-06T07:58:33.235Z,2.57
2022-12-06T07:59:33.094Z,2.68
2022-12-06T08:00:33.018Z,2.71
2022-12-06T08:01:33.007Z,2.65
2022-12-06T08:02:33.464Z,2.68
2022-12-06T08:03:32.864Z,2.67
2022-12-06T08:04:32.856Z,2.71
2022-12-06T08:05:32.736Z,2.69
2022-12-06T08:06:32.689Z,2.71
2022-12-06T08:07:32.696Z,2.69
2022-12-06T08:08:32.582Z,2.69
2022-12-06T08:09:32.478Z,2.69
2022-12-06T08:10:32.737Z,2.71
2022-12-06T08:11:32.376Z,2.72
2022-12-06T08:12:33.291Z,2.68
2022-12-06T08:13:32.279Z,2.68
2022-12-06T08:14:32.192Z,2.65
2022-12-06T08:15:32.177Z,2.72
2022-12-06T08:16:32.151Z,2.62
2022-12-06T08:17:32.030Z,2.68
2022-12-06T08:18:31.966Z,2.65
2022-12-06T08:19:31.896Z,2.69
2022-12-06T08:20:31.839Z,2.65
2022-12-06T08:21:31.766Z,2.69
2022-12-06T08:22:31.719Z,2.74
2022-12-06T08:23:34.326Z,2.68
2022-12-06T08:24:31.598Z,2.69
2022-12-06T08:25:31.521Z,2.71
2022-12-06T08:26:31.511Z,2.69
2022-12-06T08:27:31.403Z,2.69
2022-12-06T08:28:31.341Z,2.71
2022-12-06T08:29:31.285Z,2.61
2022-12-06T08:30:31.346Z,2.68
2022-12-06T08:31:31.351Z,2.71
2022-12-06T08:32:31.145Z,2.60
2022-12-06T08:33:31.055Z,2.68
2022-12-06T08:34:31.032Z,2.64
2022-12-06T08:35:30.928Z,2.67
2022-12-06T08:36:30.903Z,2.69
2022-12-06T08:37:30.821Z,2.56
2022-12-06T08:38:30.770Z,2.68
2022-12-06T08:39:30.721Z,2.65
2022-12-06T08:40:30.678Z,2.68
2022-12-06T08:41:30.578Z,2.64
2022-12-06T08:42:30.510Z,2.65
2022-12-06T08:43:30.451Z,2.65
2022-12-06T08:44:30.438Z,2.71
2022-12-06T08:45:30.336Z,2.67
2022-12-06T08:46:30.377Z,2.64
2022-12-06T08:47:30.361Z,2.61
2022-12-06T08:48:30.136Z,2.72
2022-12-06T08:49:30.130Z,2.71
2022-12-06T08:50:30.032Z,2.71
2022-12-06T08:51:29.974Z,2.71
2022-12-06T08:52:29.936Z,2.67
2022-12-06T08:53:29.869Z,2.57
2022-12-06T08:54:29.828Z,2.71
2022-12-06T08:55:29.786Z,2.71
2022-12-06T08:56:29.690Z,2.57
2022-12-06T08:57:29.615Z,2.54
2022-12-06T08:58:29.558Z,2.71
2022-12-06T08:59:29.521Z,2.65
2022-12-06T09:00:29.453Z,2.68
2022-12-06T09:01:35.725Z,2.69
2022-12-06T09:02:29.320Z,2.71
2022-12-06T09:03:29.248Z,2.71
2022-12-06T09:04:29.240Z,2.72
2022-12-06T09:05:29.126Z,2.72
2022-12-06T09:06:29.066Z,2.72
2022-12-06T09:07:29.032Z,2.75
2022-12-06T09:08:28.968Z,2.83
2022-12-06T09:09:28.904Z,2.75
2022-12-06T09:10:28.862Z,2.80
2022-12-06T09:11:28.781Z,2.80
2022-12-06T09:12:28.702Z,2.85
2022-12-06T09:13:28.680Z,2.77
2022-12-06T09:14:28.679Z,2.82
2022-12-06T09:15:28.525Z,2.85
2022-12-06T09:16:28.518Z,2.74
2022-12-06T09:17:28.408Z,2.80
2022-12-06T09:18:28.356Z,2.83
2022-12-06T09:19:28.291Z,2.87
2022-12-06T09:20:28.238Z,2.83
2022-12-06T09:21:28.166Z,2.85
2022-12-06T09:22:28.111Z,2.85
2022-12-06T09:23:28.065Z,2.89
2022-12-06T09:24:27.982Z,2.85
2022-12-06T09:25:27.970Z,2.86
2022-12-06T09:26:27.866Z,2.90
2022-12-06T09:27:27.809Z,2.90
2022-12-06T09:28:27.791Z,2.89
2022-12-06T09:29:27.699Z,2.87
2022-12-06T09:30:27.673Z,2.85
2022-12-06T09:31:27.660Z,2.95
2022-12-06T09:32:27.518Z,2.87
2022-12-06T09:33:27.474Z,3.00
2022-12-06T09:34:27.419Z,2.92
2022-12-06T09:35:27.338Z,3.00
2022-12-06T09:36:27.279Z,2.97
2022-12-06T09:37:27.239Z,2.97
2022-12-06T09:38:27.161Z,3.03
2022-12-06T09:39:27.133Z,2.98
2022-12-06T09:40:27.025Z,3.04
2022-12-06T09:41:26.972Z,3.04
2022-12-06T09:42:26.915Z,2.98
2022-12-06T09:43:26.861Z,3.04
2022-12-06T09:44:26.841Z,3.07
2022-12-06T09:45:26.745Z,3.10
2022-12-06T09:46:26.781Z,3.07
2022-12-06T09:47:26.614Z,3.05
2022-12-06T09:48:26.578Z,3.10
2022-12-06T09:49:26.501Z,3.11
2022-12-06T09:50:26.476Z,3.11
2022-12-06T09:51:26.392Z,3.07
2022-12-06T09:52:26.313Z,3.05
2022-12-06T09:53:26.237Z,3.08
2022-12-06T09:54:26.192Z,3.10
2022-12-06T09:55:26.175Z,3.11
2022-12-06T09:56:26.193Z,3.11
2022-12-06T09:57:26.021Z,3.10
2022-12-06T09:58:25.953Z,3.14
2022-12-06T09:59:25.902Z,3.18
2022-12-06T10:00:25.850Z,3.22
2022-12-06T10:01:25.847Z,3.13
2022-12-06T10:02:25.771Z,3.22
2022-12-06T10:03:25.788Z,3.23
2022-12-06T10:04:25.616Z,3.18
2022-12-06T10:05:25.549Z,3.25
2022-12-06T10:06:25.530Z,3.28
2022-12-06T10:07:25.433Z,3.21
2022-12-06T10:08:25.528Z,3.31
2022-12-06T10:09:25.322Z,3.37
2022-12-06T10:10:25.241Z,3.34
2022-12-06T10:11:25.238Z,3.34
2022-12-06T10:12:25.131Z,3.40
2022-12-06T10:13:25.067Z,3.32
2022-12-06T10:14:25.029Z,3.28
2022-12-06T10:15:24.924Z,3.28
2022-12-06T10:16:24.981Z,3.31
2022-12-06T10:17:24.838Z,3.40
2022-12-06T10:18:24.760Z,3.28
2022-12-06T10:19:24.720Z,3.29
2022-12-06T10:20:24.646Z,3.28
2022-12-06T10:21:24.602Z,3.31
2022-12-06T10:22:24.559Z,3.34
2022-12-06T10:23:24.469Z,3.32
2022-12-06T10:24:24.408Z,3.31
2022-12-06T10:25:24.347Z,3.40
2022-12-06T10:26:24.299Z,3.37
2022-12-06T10:27:24.235Z,3.29
2022-12-06T10:28:24.191Z,3.31
2022-12-06T10:29:29.572Z,3.37
2022-12-06T10:30:24.065Z,3.25
2022-12-06T10:31:24.055Z,3.22
2022-12-06T10:32:24.822Z,3.22
2022-12-06T10:33:23.968Z,3.36
2022-12-06T10:34:24.123Z,3.32
2022-12-06T10:35:23.806Z,3.28
2022-12-06T10:36:23.738Z,3.36
2022-12-06T10:37:23.685Z,3.29
2022-12-06T10:38:23.594Z,3.34
2022-12-06T10:39:23.541Z,3.32
2022-12-06T10:40:23.520Z,3.25
2022-12-06T10:41:23.402Z,3.28
2022-12-06T10:42:23.335Z,3.22
2022-12-06T10:43:23.290Z,3.40
2022-12-06T10:44:23.221Z,3.22
2022-12-06T10:45:24.993Z,3.34
2022-12-06T10:46:23.242Z,3.28
2022-12-06T10:47:23.140Z,3.23
2022-12-06T10:48:22.997Z,3.25
2022-12-06T10:49:22.931Z,3.25
2022-12-06T10:50:22.866Z,3.23
2022-12-06T10:51:22.812Z,3.32
2022-12-06T10:52:22.777Z,3.32
2022-12-06T10:53:22.676Z,3.26
2022-12-06T10:54:22.631Z,3.26
2022-12-06T10:55:22.550Z,3.18
2022-12-06T10:56:22.507Z,3.23
2022-12-06T10:57:22.460Z,3.23
2022-12-06T10:58:22.431Z,3.25
2022-12-06T10:59:22.338Z,3.25
2022-12-06T11:00:22.621Z,3.28
2022-12-06T11:01:22.258Z,3.28
2022-12-06T11:02:22.189Z,3.25
2022-12-06T11:03:22.140Z,3.21
2022-12-06T11:04:22.039Z,3.31
2022-12-06T11:05:21.973Z,3.26
2022-12-06T11:06:21.901Z,3.26
2022-12-06T11:07:21.861Z,3.21
2022-12-06T11:08:21.903Z,3.23
2022-12-06T11:09:21.733Z,3.25
2022-12-06T11:10:21.664Z,3.23
2022-12-06T11:11:21.606Z,3.40
2022-12-06T11:12:25.239Z,3.25
2022-12-06T11:13:21.508Z,3.32
2022-12-06T11:14:21.469Z,3.31
2022-12-06T11:15:21.384Z,3.34
2022-12-06T11:16:21.399Z,3.26
2022-12-06T11:17:21.268Z,3.29
2022-12-06T11:18:21.194Z,3.32
2022-12-06T11:19:21.150Z,3.26
2022-12-06T11:20:21.081Z,3.32
2022-12-06T11:21:21.009Z,3.40
2022-12-06T11:22:20.960Z,3.28
2022-12-06T11:23:20.886Z,3.41
2022-12-06T11:24:20.850Z,3.36
2022-12-06T11:25:20.772Z,3.37
2022-12-06T11:26:20.753Z,3.36
2022-12-06T11:27:20.661Z,3.36
2022-12-06T11:28:20.610Z,3.40
2022-12-06T11:29:20.531Z,3.37
2022-12-06T11:30:20.901Z,3.41
2022-12-06T11:31:20.535Z,3.36
2022-12-06T11:32:20.349Z,3.47
2022-12-06T11:33:20.311Z,3.42
2022-12-06T11:34:20.259Z,3.44
2022-12-06T11:35:20.181Z,3.44
2022-12-06T11:36:20.135Z,3.45
2022-12-06T11:37:20.081Z,3.45
2022-12-06T11:38:19.990Z,3.42
2022-12-06T11:39:19.930Z,3.47
2022-12-06T11:40:19.894Z,3.47
2022-12-06T11:41:19.855Z,3.47
2022-12-06T11:42:19.776Z,3.42
2022-12-06T11:43:19.726Z,3.50
2022-12-06T11:44:19.640Z,3.34
2022-12-06T11:45:19.590Z,3.45
2022-12-06T11:46:19.583Z,3.48
2022-12-06T11:47:19.490Z,3.50
2022-12-06T11:48:19.405Z,3.47
2022-12-06T11:49:19.363Z,3.51
2022-12-06T11:50:19.298Z,3.56
2022-12-06T11:51:19.233Z,3.53
2022-12-06T11:52:19.166Z,3.48
2022-12-06T11:53:19.105Z,3.50
2022-12-06T11:54:19.058Z,3.50
2022-12-06T11:55:18.998Z,3.50
2022-12-06T11:56:18.949Z,3.51
2022-12-06T11:57:22.448Z,3.45
2022-12-06T11:58:18.843Z,3.45
2022-12-06T11:59:18.762Z,3.53
2022-12-06T12:00:18.699Z,3.53
2022-12-06T12:01:18.632Z,3.55
2022-12-06T12:02:19.705Z,3.45
2022-12-06T12:03:18.664Z,3.50
2022-12-06T12:04:18.489Z,3.47
2022-12-06T12:05:18.420Z,3.44
2022-12-06T12:06:18.345Z,3.45
2022-12-06T12:07:18.315Z,3.44
2022-12-06T12:08:18.367Z,3.36
2022-12-06T12:09:18.167Z,3.42
2022-12-06T12:10:18.081Z,3.41
2022-12-06T12:11:18.011Z,3.45
2022-12-06T12:12:17.985Z,3.44
2022-12-06T12:13:17.916Z,3.45
2022-12-06T12:14:17.871Z,3.42
2022-12-06T12:15:17.787Z,3.45
2022-12-06T12:16:17.793Z,3.47
2022-12-06T12:17:17.704Z,3.47
2022-12-06T12:18:17.628Z,3.58
2022-12-06T12:19:17.600Z,3.53
2022-12-06T12:20:17.629Z,3.50
2022-12-06T12:21:17.480Z,3.44
2022-12-06T12:22:17.370Z,3.47
2022-12-06T12:23:17.304Z,3.50
2022-12-06T12:24:17.260Z,3.56
2022-12-06T12:25:19.470Z,3.48
2022-12-06T12:26:17.191Z,3.55
2022-12-06T12:27:22.209Z,3.51
2022-12-06T12:28:17.033Z,3.59
2022-12-06T12:29:16.984Z,3.51
2022-12-06T12:30:16.915Z,3.60
2022-12-06T12:31:16.855Z,3.47
2022-12-06T12:32:16.864Z,3.45
2022-12-06T12:33:16.733Z,3.45
2022-12-06T12:34:16.685Z,3.48
2022-12-06T12:35:16.605Z,3.37
2022-12-06T12:36:16.534Z,3.34
2022-12-06T12:37:16.501Z,3.41
2022-12-06T12:38:16.436Z,3.48
2022-12-06T12:39:16.380Z,3.44
2022-12-06T12:40:16.326Z,3.44
2022-12-06T12:41:16.240Z,3.44
2022-12-06T12:42:16.197Z,3.50
2022-12-06T12:43:16.125Z,3.47
2022-12-06T12:45:16.034Z,3.45
2022-12-06T12:46:15.993Z,3.47
2022-12-06T12:47:15.884Z,3.48
2022-12-06T12:48:15.850Z,3.50
2022-12-06T12:49:18.254Z,3.50
2022-12-06T12:50:15.711Z,3.48
2022-12-06T12:51:15.679Z,3.55
2022-12-06T12:52:15.562Z,3.56
2022-12-06T12:53:15.540Z,3.53
2022-12-06T12:54:15.444Z,3.47
2022-12-06T12:55:15.417Z,3.53
2022-12-06T12:56:15.341Z,3.50
2022-12-06T12:57:15.307Z,3.55
2022-12-06T12:58:15.205Z,3.56
2022-12-06T12:59:15.177Z,3.56
2022-12-06T13:00:15.126Z,3.55
2022-12-06T13:01:15.137Z,3.44
2022-12-06T13:02:15.056Z,3.50
2022-12-06T13:03:49.004Z,3.51
2022-12-06T13:04:14.841Z,3.45
2022-12-06T13:05:32.698Z,3.48
2022-12-06T13:06:14.776Z,3.48
2022-12-06T13:07:14.696Z,3.55
2022-12-06T13:08:14.679Z,3.47
2022-12-06T13:09:14.588Z,3.56
2022-12-06T13:10:14.528Z,3.55
2022-12-06T13:11:14.521Z,3.58
2022-12-06T13:12:14.489Z,3.44
2022-12-06T13:13:14.331Z,3.55
2022-12-06T13:14:14.304Z,3.45
2022-12-06T13:15:14.215Z,3.56
2022-12-06T13:16:14.266Z,3.50
2022-12-06T13:17:14.171Z,3.59
2022-12-06T13:18:14.043Z,3.50